createdAt,value
2022-12-06T00:01:28.764Z,5.73
2022-12-06T00:03:59.052Z,5.71
2022-12-06T00:06:28.503Z,5.70
2022-12-06T00:08:57.487Z,5.66
2022-12-06T00:11:27.608Z,5.67
2022-12-06T00:13:58.086Z,5.59
2022-12-06T00:16:26.159Z,5.70
2022-12-06T00:18:54.607Z,5.66
2022-12-06T00:21:24.498Z,5.64
2022-12-06T00:23:53.674Z,5.66
2022-12-06T00:26:22.533Z,5.76
2022-12-06T00:28:53.780Z,5.74
2022-12-06T00:31:24.764Z,5.82
2022-12-06T00:33:52.836Z,5.82
2022-12-06T00:36:22.542Z,5.75
2022-12-06T00:38:50.764Z,5.64
2022-12-06T00:41:20.729Z,5.62
2022-12-06T00:43:48.597Z,5.43
2022-12-06T00:46:18.202Z,5.46
2022-12-06T00:48:48.818Z,5.55
2022-12-06T00:51:17.532Z,5.46
2022-12-06T00:53:46.004Z,5.47
2022-12-06T00:56:14.410Z,5.38
2022-12-06T00:58:42.538Z,5.49
2022-12-06T01:01:11.518Z,5.66
2022-12-06T01:03:39.545Z,5.74
2022-12-06T01:06:11.312Z,5.69
2022-12-06T01:08:40.280Z,5.63
2022-12-06T01:11:09.348Z,5.77
2022-12-06T01:13:37.357Z,5.72
2022-12-06T01:16:09.519Z,5.64
2022-12-06T01:18:37.761Z,5.51
2022-12-06T01:21:08.414Z,5.45
2022-12-06T01:23:36.469Z,5.51
2022-12-06T01:26:04.372Z,5.51
2022-12-06T01:28:31.998Z,5.34
2022-12-06T01:30:59.805Z,5.37
2022-12-06T01:33:27.441Z,5.33
2022-12-06T01:35:55.035Z,5.14
2022-12-06T01:38:24.084Z,5.31
2022-12-06T01:40:51.672Z,5.38
2022-12-06T01:43:34.419Z,5.36
2022-12-06T01:46:07.933Z,5.35
2022-12-06T01:48:36.157Z,5.42
2022-12-06T01:51:05.641Z,5.31
2022-12-06T01:53:35.552Z,5.27
2022-12-06T01:56:03.747Z,5.19
2022-12-06T01:58:35.825Z,5.15
2022-12-06T02:01:03.558Z,5.16
2022-12-06T02:03:34.542Z,5.12
2022-12-06T02:06:04.401Z,5.10
2022-12-06T02:08:34.794Z,5.20
2022-12-06T02:11:03.414Z,5.09
2022-12-06T02:13:33.008Z,5.06
2022-12-06T02:16:11.737Z,5.02
2022-12-06T02:18:45.282Z,4.96
2022-12-06T02:21:22.870Z,5.02
2022-12-06T02:24:24.583Z,5.14
2022-12-06T02:27:00.736Z,5.11
2022-12-06T02:30:00.707Z,5.04
2022-12-06T02:32:35.327Z,4.92
2022-12-06T02:35:12.096Z,5.01
2022-12-06T02:37:45.890Z,4.99
2022-12-06T02:40:19.849Z,5.14
2022-12-06T02:42:54.974Z,5.10
2022-12-06T02:45:27.961Z,5.13
2022-12-06T02:48:02.630Z,5.27
2022-12-06T02:50:34.851Z,5.24
2022-12-06T02:53:04.236Z,5.07
2022-12-06T02:55:34.121Z,4.73
2022-12-06T02:58:01.842Z,4.72
2022-12-06T03:00:40.022Z,4.60
2022-12-06T03:03:31.031Z,4.62
2022-12-06T03:06:34.116Z,4.59
2022-12-06T03:09:12.572Z,4.67
2022-12-06T03:11:50.543Z,4.61
2022-12-06T03:14:21.934Z,4.63
2022-12-06T03:16:55.237Z,4.61
2022-12-06T03:19:26.761Z,4.68
2022-12-06T03:22:01.721Z,4.70
2022-12-06T03:24:32.711Z,4.59
2022-12-06T03:27:02.618Z,4.64
2022-12-06T03:29:32.552Z,4.59
2022-12-06T03:32:03.459Z,4.54
2022-12-06T03:34:37.263Z,4.41
2022-12-06T03:37:06.983Z,4.45
2022-12-06T03:39:40.044Z,4.69
2022-12-06T03:42:08.422Z,4.71
2022-12-06T03:44:36.446Z,4.68
2022-12-06T03:47:11.614Z,4.75
2022-12-06T03:49:45.675Z,4.76
2022-12-06T03:52:13.290Z,4.55
2022-12-06T03:54:41.326Z,4.67
2022-12-06T03:57:10.158Z,4.67
2022-12-06T03:59:37.817Z,4.70
2022-12-06T04:02:05.493Z,4.61
2022-12-06T04:04:33.110Z,4.58
2022-12-06T04:07:02.066Z,4.46
2022-12-06T04:09:47.303Z,4.58
2022-12-06T04:12:28.801Z,4.49
2022-12-06T04:14:56.375Z,4.45
2022-12-06T04:17:41.521Z,4.41
2022-12-06T04:20:09.586Z,4.39
2022-12-06T04:22:55.986Z,4.48
2022-12-06T04:25:23.606Z,4.28
2022-12-06T04:28:08.814Z,4.37
2022-12-06T04:30:54.193Z,4.44
2022-12-06T04:33:39.715Z,4.58
2022-12-06T04:36:25.707Z,4.52
2022-12-06T04:38:54.746Z,4.35
2022-12-06T04:41:36.209Z,4.37
2022-12-06T04:44:05.047Z,4.58
2022-12-06T04:46:33.083Z,4.63
2022-12-06T04:49:01.003Z,4.69
2022-12-06T04:51:28.956Z,4.61
2022-12-06T04:53:58.674Z,4.64
2022-12-06T04:56:26.219Z,4.57
2022-12-06T04:58:53.810Z,4.56
2022-12-06T05:01:21.487Z,4.71
2022-12-06T05:03:49.191Z,4.63
2022-12-06T05:06:16.890Z,4.61
2022-12-06T05:08:44.473Z,4.63
2022-12-06T05:11:13.476Z,4.68
2022-12-06T05:13:41.128Z,4.55
2022-12-06T05:16:09.650Z,4.72
2022-12-06T05:18:37.473Z,4.68
2022-12-06T05:21:06.887Z,4.79
2022-12-06T05:23:42.361Z,4.81
2022-12-06T05:26:13.567Z,4.77
2022-12-06T05:28:41.506Z,4.61
2022-12-06T05:31:09.399Z,4.64
2022-12-06T05:33:37.806Z,4.53
2022-12-06T05:36:09.002Z,4.65
2022-12-06T05:38:36.892Z,4.51
2022-12-06T05:41:05.649Z,4.45
2022-12-06T05:43:34.887Z,4.49
2022-12-06T05:46:02.621Z,4.55
2022-12-06T05:48:30.569Z,4.63
2022-12-06T05:50:58.527Z,4.47
2022-12-06T05:53:26.109Z,4.57
2022-12-06T05:55:54.071Z,4.56
2022-12-06T05:58:21.748Z,4.63
2022-12-06T06:00:51.226Z,4.76
2022-12-06T06:03:19.340Z,4.76
2022-12-06T06:05:49.499Z,4.77
2022-12-06T06:08:17.597Z,4.76
2022-12-06T06:10:45.845Z,4.86
2022-12-06T06:13:13.587Z,4.80
2022-12-06T06:15:41.148Z,4.69
2022-12-06T06:18:10.029Z,4.83
2022-12-06T06:20:37.658Z,4.92
2022-12-06T06:23:05.546Z,4.78
2022-12-06T06:25:33.237Z,4.70
2022-12-06T06:28:00.782Z,4.76
2022-12-06T06:30:28.387Z,4.80
2022-12-06T06:32:56.023Z,4.89
2022-12-06T06:35:25.229Z,4.81
2022-12-06T06:37:53.024Z,4.89
2022-12-06T06:40:21.779Z,4.69
2022-12-06T06:42:49.466Z,4.76
2022-12-06T06:45:17.288Z,4.78
2022-12-06T06:47:44.905Z,4.83
2022-12-06T06:50:13.326Z,4.69
2022-12-06T06:52:42.363Z,4.60
2022-12-06T06:55:10.402Z,4.87
2022-12-06T06:57:41.201Z,4.61
2022-12-06T07:00:10.428Z,4.52
2022-12-06T07:02:39.625Z,4.63
2022-12-06T07:05:08.345Z,4.59
2022-12-06T07:07:36.031Z,4.62
2022-12-06T07:10:06.691Z,4.68
2022-12-06T07:12:36.036Z,4.64
2022-12-06T07:15:03.739Z,4.60
2022-12-06T07:17:31.360Z,4.52
2022-12-06T07:19:59.332Z,4.55
2022-12-06T07:22:27.067Z,4.59
2022-12-06T07:24:54.689Z,4.73
2022-12-06T07:27:23.675Z,4.66
2022-12-06T07:29:51.351Z,4.88
2022-12-06T07:32:18.987Z,4.74
2022-12-06T07:34:46.819Z,4.71
2022-12-06T07:37:15.076Z,4.65
2022-12-06T07:39:43.986Z,4.82
2022-12-06T07:42:29.311Z,4.77
2022-12-06T07:45:05.610Z,4.74
2022-12-06T07:47:34.995Z,4.71
2022-12-06T07:50:03.134Z,4.79
2022-12-06T07:52:35.253Z,4.72
2022-12-06T07:55:03.150Z,4.81
2022-12-06T07:57:31.180Z,4.70
2022-12-06T08:00:00.594Z,4.79
2022-12-06T08:02:29.466Z,4.83
2022-12-06T08:04:57.562Z,4.84
2022-12-06T08:07:26.620Z,4.93
2022-12-06T08:09:54.969Z,4.89
2022-12-06T08:12:23.109Z,5.01
2022-12-06T08:14:53.149Z,4.88
2022-12-06T08:17:24.319Z,4.92
2022-12-06T08:19:51.954Z,4.75
2022-12-06T08:22:19.548Z,4.72
2022-12-06T08:24:47.156Z,4.82
2022-12-06T08:27:15.057Z,4.85
2022-12-06T08:29:45.102Z,5.07
2022-12-06T08:32:13.019Z,4.97
2022-12-06T08:34:42.828Z,5.08
2022-12-06T08:37:10.553Z,5.17
2022-12-06T08:39:38.151Z,5.31
2022-12-06T08:42:07.607Z,5.34
2022-12-06T08:44:36.798Z,5.44
2022-12-06T08:47:04.662Z,5.39
2022-12-06T08:49:32.458Z,5.52
2022-12-06T08:52:01.725Z,5.54
2022-12-06T08:54:31.639Z,5.59
2022-12-06T08:56:59.233Z,5.72
2022-12-06T08:59:26.873Z,5.70
2022-12-06T09:01:54.509Z,5.60
2022-12-06T09:04:22.902Z,5.79
2022-12-06T09:06:50.626Z,5.77
2022-12-06T09:09:21.235Z,5.77
2022-12-06T09:11:50.659Z,5.75
2022-12-06T09:14:22.030Z,5.50
2022-12-06T09:16:51.081Z,5.54
2022-12-06T09:19:19.311Z,5.61
2022-12-06T09:21:47.292Z,5.54
2022-12-06T09:24:17.787Z,5.56
2022-12-06T09:26:47.302Z,5.48
2022-12-06T09:29:15.830Z,5.65
2022-12-06T09:31:43.514Z,5.66
2022-12-06T09:34:12.424Z,5.73
2022-12-06T09:36:44.730Z,5.72
2022-12-06T09:39:16.068Z,5.81
2022-12-06T09:42:15.444Z,5.82
2022-12-06T09:45:13.926Z,5.64
2022-12-06T09:47:55.737Z,5.76
2022-12-06T09:50:33.589Z,5.90
2022-12-06T09:53:16.711Z,5.77
2022-12-06T09:56:01.224Z,5.82
2022-12-06T09:58:43.443Z,5.80
2022-12-06T10:01:20.917Z,5.88
2022-12-06T10:04:24.538Z,5.76
2022-12-06T10:07:04.281Z,5.96
2022-12-06T10:09:40.415Z,6.25
2022-12-06T10:12:21.156Z,6.38
2022-12-06T10:15:16.415Z,6.37
2022-12-06T10:18:01.003Z,6.41
2022-12-06T10:20:34.759Z,6.38
2022-12-06T10:23:15.653Z,6.19
2022-12-06T10:25:52.848Z,6.08
2022-12-06T10:28:33.358Z,6.33
2022-12-06T10:31:13.571Z,6.36
2022-12-06T10:33:53.519Z,6.29
2022-12-06T10:36:48.708Z,6.52
2022-12-06T10:39:25.077Z,6.36
2022-12-06T10:42:02.815Z,6.37
2022-12-06T10:44:36.308Z,6.45
2022-12-06T10:47:12.627Z,6.69
2022-12-06T10:49:48.592Z,6.74
2022-12-06T10:52:30.956Z,6.75
2022-12-06T10:55:06.221Z,6.60
2022-12-06T10:57:42.431Z,6.57
2022-12-06T11:00:16.700Z,6.68
2022-12-06T11:02:54.409Z,6.72
2022-12-06T11:05:27.331Z,6.81
2022-12-06T11:08:03.326Z,6.75
2022-12-06T11:10:34.771Z,6.74
2022-12-06T11:13:12.937Z,6.52
2022-12-06T11:15:47.480Z,6.71
2022-12-06T11:18:20.580Z,6.55
2022-12-06T11:20:52.344Z,6.70
2022-12-06T11:23:28.058Z,6.85
2022-12-06T11:26:06.244Z,6.85
2022-12-06T11:28:37.543Z,6.95
2022-12-06T11:31:17.009Z,7.04
2022-12-06T11:33:46.427Z,7.21
2022-12-06T11:36:14.365Z,7.15
2022-12-06T11:38:44.396Z,7.00
2022-12-06T11:41:18.674Z,7.20
2022-12-06T11:43:46.519Z,7.21
2022-12-06T11:46:15.781Z,7.34
2022-12-06T11:48:43.950Z,7.44
2022-12-06T11:51:18.467Z,7.49
2022-12-06T11:54:00.140Z,7.49
2022-12-06T11:56:30.390Z,7.36
2022-12-06T11:59:08.082Z,7.36
2022-12-06T12:01:41.862Z,7.46
2022-12-06T12:04:32.835Z,7.57
2022-12-06T12:07:05.892Z,7.64
2022-12-06T12:09:38.050Z,7.49
2022-12-06T12:12:13.953Z,7.43
2022-12-06T12:14:59.727Z,7.53
2022-12-06T12:17:33.756Z,7.54
2022-12-06T12:20:05.543Z,7.65
2022-12-06T12:22:39.353Z,7.53
2022-12-06T12:25:24.760Z,7.41
2022-12-06T12:27:54.414Z,7.24
2022-12-06T12:30:25.680Z,7.32
2022-12-06T12:33:10.888Z,7.51
2022-12-06T12:35:40.772Z,7.51
2022-12-06T12:38:24.584Z,7.59
2022-12-06T12:40:54.474Z,7.60
2022-12-06T12:43:24.520Z,7.49
2022-12-06T12:46:14.843Z,7.64
2022-12-06T12:48:45.157Z,7.03
2022-12-06T12:51:26.365Z,7.26
2022-12-06T12:53:58.621Z,7.18
2022-12-06T12:56:30.567Z,7.00
2022-12-06T12:58:58.779Z,6.93
2022-12-06T13:01:44.278Z,7.14
2022-12-06T13:04:19.585Z,7.34
2022-12-06T13:06:51.196Z,7.00
2022-12-06T13:09:26.065Z,7.24
2022-12-06T13:11:58.571Z,7.36
2022-12-06T13:14:29.148Z,7.33
2022-12-06T13:17:01.263Z,7.31
2022-12-06T13:19:34.561Z,7.32
2022-12-06T13:22:05.101Z,7.21
2022-12-06T13:24:38.871Z,7.06
2022-12-06T13:27:13.865Z,6.86
2022-12-06T13:29:46.656Z,7.02
2022-12-06T13:32:22.097Z,7.09
2022-12-06T13:34:51.813Z,7.08
2022-12-06T13:37:30.951Z,7.13
2022-12-06T13:40:02.415Z,7.14
2022-12-06T13:42:46.494Z,7.22
2022-12-06T13:45:41.227Z,6.68
2022-12-06T13:48:45.873Z,6.75
2022-12-06T13:51:45.115Z,6.83
2022-12-06T13:54:37.444Z,6.88
2022-12-06T13:57:28.779Z,6.87
2022-12-06T13:59:58.152Z,6.81
2022-12-06T14:02:53.458Z,6.79
2022-12-06T14:08:38.378Z,6.90
2022-12-06T14:11:21.048Z,6.97
2022-12-06T14:13:59.593Z,6.97
2022-12-06T14:16:32.774Z,7.02
2022-12-06T14:19:00.540Z,6.82
2022-12-06T14:21:31.987Z,6.79
2022-12-06T14:24:08.278Z,6.70
2022-12-06T14:26:43.523Z,6.71
2022-12-06T14:29:22.262Z,6.72
2022-12-06T14:31:52.199Z,6.78
2022-12-06T14:34:26.883Z,6.84
2022-12-06T14:36:54.905Z,6.67
2022-12-06T14:39:25.727Z,6.59
2022-12-06T14:42:12.967Z,6.57
2022-12-06T14:44:42.855Z,6.61
2022-12-06T14:47:15.566Z,6.78
2022-12-06T14:50:01.722Z,6.83
2022-12-06T14:52:32.421Z,6.71
2022-12-06T14:55:21.127Z,6.70
2022-12-06T14:57:56.597Z,6.76
2022-12-06T15:00:28.120Z,6.70
2022-12-06T15:03:16.090Z,6.53
2022-12-06T15:05:45.836Z,6.46
2022-12-06T15:08:32.210Z,6.55
2022-12-06T15:11:03.595Z,6.60
2022-12-06T15:13:30.538Z,6.48
2022-12-06T15:16:06.665Z,6.44
2022-12-06T15:18:57.238Z,6.40
2022-12-06T15:21:25.876Z,6.41
2022-12-06T15:23:55.054Z,6.36
2022-12-06T15:26:26.574Z,6.32
2022-12-06T15:28:54.110Z,6.37
2022-12-06T15:31:29.704Z,6.38
2022-12-06T15:33:57.739Z,6.33
2022-12-06T15:36:38.013Z,6.36
2022-12-06T15:39:12.210Z,6.24
2022-12-06T15:41:42.031Z,6.22
2022-12-06T15:44:17.252Z,6.06
2022-12-06T15:46:49.311Z,6.05
2022-12-06T15:49:18.816Z,6.06
2022-12-06T15:51:46.797Z,6.05
2022-12-06T15:54:17.574Z,6.20
2022-12-06T15:56:47.386Z,6.29
2022-12-06T15:59:16.052Z,6.19
2022-12-06T16:01:45.943Z,6.31
2022-12-06T16:04:15.823Z,6.18
2022-12-06T16:06:44.147Z,6.17
2022-12-06T16:09:12.633Z,6.02
2022-12-06T16:11:40.591Z,5.99
2022-12-06T16:14:11.667Z,5.91
2022-12-06T16:16:43.343Z,5.79
2022-12-06T16:19:12.219Z,5.68
2022-12-06T16:21:55.837Z,5.58
2022-12-06T16:24:45.445Z,5.72
2022-12-06T16:27:16.183Z,5.75
2022-12-06T16:29:58.993Z,5.79
2022-12-06T16:32:31.534Z,5.84
2022-12-06T16:35:02.356Z,5.95
2022-12-06T16:37:30.240Z,5.85
2022-12-06T16:39:57.875Z,5.98
2022-12-06T16:42:34.230Z,6.07
2022-12-06T16:45:03.800Z,5.98
2022-12-06T16:47:32.715Z,6.04
2022-12-06T16:50:00.959Z,5.97
2022-12-06T16:52:28.643Z,6.00
2022-12-06T16:54:59.012Z,5.92
2022-12-06T16:57:26.995Z,5.97
2022-12-06T16:59:54.608Z,5.99
2022-12-06T17:02:29.032Z,5.99
2022-12-06T17:05:00.850Z,5.91
2022-12-06T17:07:30.460Z,5.88
2022-12-06T17:09:58.392Z,5.96
2022-12-06T17:12:26.186Z,5.91
2022-12-06T17:14:53.847Z,5.79
2022-12-06T17:17:25.842Z,5.78
2022-12-06T17:19:57.183Z,5.56
2022-12-06T17:22:25.295Z,5.68
2022-12-06T17:24:52.868Z,5.77
2022-12-06T17:27:20.577Z,5.80
2022-12-06T17:29:48.676Z,5.78
2022-12-06T17:32:21.641Z,5.93
2022-12-06T17:34:49.802Z,5.99
2022-12-06T17:37:20.394Z,6.00
2022-12-06T17:39:49.120Z,5.85
2022-12-06T17:42:34.647Z,5.95
2022-12-06T17:45:03.427Z,6.06
2022-12-06T17:47:33.685Z,6.00
2022-12-06T17:50:01.769Z,6.09
2022-12-06T17:52:34.513Z,6.08
2022-12-06T17:55:02.687Z,6.09
2022-12-06T17:57:30.452Z,5.97
2022-12-06T17:59:59.119Z,6.02
2022-12-06T18:02:27.754Z,6.15
2022-12-06T18:04:56.454Z,6.18
2022-12-06T18:07:25.371Z,5.86
2022-12-06T18:09:54.433Z,5.88
2022-12-06T18:12:22.130Z,5.71
2022-12-06T18:14:49.818Z,5.68
2022-12-06T18:17:18.195Z,5.73
2022-12-06T18:19:49.441Z,5.81
2022-12-06T18:22:17.304Z,5.78
2022-12-06T18:24:45.373Z,5.96
2022-12-06T18:27:17.738Z,5.83
2022-12-06T18:29:45.889Z,5.83
2022-12-06T18:32:14.179Z,5.81
2022-12-06T18:34:42.710Z,5.96
2022-12-06T18:37:10.721Z,6.06
2022-12-06T18:39:38.587Z,6.05
2022-12-06T18:42:06.518Z,5.92
2022-12-06T18:44:36.034Z,5.95
2022-12-06T18:47:04.260Z,5.94
2022-12-06T18:49:32.232Z,6.03
2022-12-06T18:51:59.832Z,6.06
2022-12-06T18:54:28.268Z,6.10
2022-12-06T18:56:57.759Z,6.07
2022-12-06T18:59:27.754Z,5.96
2022-12-06T19:01:57.636Z,5.99
2022-12-06T19:04:26.322Z,5.97
2022-12-06T19:06:54.216Z,5.89
2022-12-06T19:09:24.545Z,5.82
2022-12-06T19:11:52.856Z,5.82
2022-12-06T19:14:21.101Z,5.84
2022-12-06T19:16:51.085Z,5.94
2022-12-06T19:19:22.489Z,5.95
2022-12-06T19:21:51.954Z,5.77
2022-12-06T19:24:22.502Z,5.85
2022-12-06T19:26:52.495Z,5.79
2022-12-06T19:29:20.568Z,5.76
2022-12-06T19:31:50.852Z,5.69
2022-12-06T19:34:21.943Z,5.71
2022-12-06T19:36:55.163Z,5.86
2022-12-06T19:39:23.874Z,5.84
2022-12-06T19:42:09.221Z,5.93
2022-12-06T19:44:38.960Z,5.88
2022-12-06T19:47:08.111Z,5.92
2022-12-06T19:49:37.893Z,5.85
2022-12-06T19:52:13.867Z,5.77
2022-12-06T19:54:43.939Z,5.59
2022-12-06T19:57:12.499Z,5.58
2022-12-06T19:59:40.294Z,5.60
2022-12-06T20:02:08.686Z,5.64
2022-12-06T20:04:40.069Z,5.67
2022-12-06T20:07:08.609Z,5.52
2022-12-06T20:09:36.259Z,5.56
2022-12-06T20:12:07.627Z,5.48
2022-12-06T20:14:40.303Z,5.39
2022-12-06T20:17:10.044Z,5.34
2022-12-06T20:19:39.711Z,5.37
2022-12-06T20:22:07.674Z,5.32
2022-12-06T20:24:36.097Z,5.25
2022-12-06T20:27:05.767Z,5.19
2022-12-06T20:29:33.739Z,5.11
2022-12-06T20:32:01.929Z,5.01
2022-12-06T20:34:34.403Z,4.94
2022-12-06T20:37:06.039Z,4.85
2022-12-06T20:39:35.737Z,4.61
2022-12-06T20:42:05.943Z,4.60
2022-12-06T20:44:34.239Z,4.54
2022-12-06T20:47:02.051Z,4.54
2022-12-06T20:49:31.019Z,4.44
2022-12-06T20:52:02.199Z,4.46
2022-12-06T20:54:31.519Z,4.44
2022-12-06T20:56:59.322Z,4.33
2022-12-06T20:59:27.121Z,4.20
2022-12-06T21:01:55.033Z,4.35
2022-12-06T21:04:22.958Z,4.22
2022-12-06T21:06:50.676Z,4.34
2022-12-06T21:09:18.346Z,4.25
2022-12-06T21:11:48.019Z,4.24
2022-12-06T21:14:17.250Z,4.19
2022-12-06T21:16:49.687Z,4.09
2022-12-06T21:19:19.689Z,4.05
2022-12-06T21:21:50.197Z,4.09
2022-12-06T21:24:20.475Z,4.21
2022-12-06T21:26:50.505Z,4.33
2022-12-06T21:29:20.845Z,4.56
2022-12-06T21:31:50.419Z,4.57
2022-12-06T21:34:18.894Z,4.59
2022-12-06T21:36:47.670Z,4.69
2022-12-06T21:39:16.306Z,4.73
2022-12-06T21:41:46.061Z,4.73
2022-12-06T21:44:16.655Z,4.80
2022-12-06T21:46:45.678Z,4.85
2022-12-06T21:49:13.404Z,4.94
2022-12-06T21:51:41.063Z,4.90
2022-12-06T21:54:09.974Z,4.90
2022-12-06T22:00:55.336Z,5.14
2022-12-06T22:06:38.028Z,5.08
2022-12-06T22:11:58.811Z,5.13
2022-12-06T22:14:26.769Z,5.05
2022-12-06T22:16:57.467Z,5.16
2022-12-06T22:19:30.071Z,5.06
2022-12-06T22:22:00.592Z,5.18
2022-12-06T22:24:28.955Z,5.22
2022-12-06T22:27:00.681Z,5.19
2022-12-06T22:29:37.973Z,5.14
2022-12-06T22:32:07.741Z,4.98
2022-12-06T22:34:37.284Z,5.07
2022-12-06T22:37:05.297Z,5.11
2022-12-06T22:39:34.484Z,5.06
2022-12-06T22:42:02.171Z,5.17
2022-12-06T22:44:33.090Z,5.22
2022-12-06T22:47:01.056Z,5.12
2022-12-06T22:49:31.143Z,5.16
2022-12-06T22:51:59.906Z,5.15
2022-12-06T22:54:27.812Z,5.05
2022-12-06T22:56:57.864Z,5.05
2022-12-06T22:59:33.269Z,4.92
2022-12-06T23:02:08.753Z,4.96
2022-12-06T23:04:38.163Z,4.94
2022-12-06T23:07:06.854Z,4.94
2022-12-06T23:09:36.015Z,4.92
2022-12-06T23:12:04.143Z,4.89
2022-12-06T23:14:32.297Z,5.01
2022-12-06T23:17:00.733Z,5.06
2022-12-06T23:19:28.873Z,5.15
2022-12-06T23:21:57.945Z,5.06
2022-12-06T23:24:25.634Z,5.08
2022-12-06T23:26:57.678Z,5.00
2022-12-06T23:29:26.201Z,4.98
2022-12-06T23:31:53.944Z,4.93
2022-12-06T23:34:26.246Z,4.94
2022-12-06T23:36:54.296Z,5.83
2022-12-06T23:39:23.365Z,5.55
2022-12-06T23:41:50.993Z,5.43
2022-12-06T23:44:18.902Z,5.17
2022-12-06T23:46:46.725Z,5.06
2022-12-06T23:49:17.804Z,5.00
2022-12-06T23:51:45.821Z,4.93
2022-12-06T23:54:14.584Z,4.84
2022-12-06T23:56:44.918Z,4.95
2022-12-06T23:59:14.931Z,4.79
